Time;durP1;ratioP1;P1;durP2;ratioP2;P2;SDS_P1;SDS_P2;PMS_P1;PMS_P2;Temp;Humidity;BMP_temperature;BMP_pressure;BME280_temperature;BME280_humidity;BME280_pressure;Samples;Min_cycle;Max_cycle;Signal;HPM_P1;HPM_P2
2023/06/17 00:00:26;;;;;;;7.95;5.60;;;;;;;;;;4999675;28;20363;-77
2023/06/17 00:02:53;;;;;;;8.25;6.18;;;;;;;;;;4998092;28;20498;-74
2023/06/17 00:05:25;;;;;;;11.20;6.25;;;;;;;;;;4997689;28;20033;-77
2023/06/17 00:07:52;;;;;;;10.55;5.85;;;;;;;;;;5013491;28;20030;-74
2023/06/17 00:10:18;;;;;;;7.97;5.90;;;;;;;;;;4998351;28;20069;-78
2023/06/17 00:12:44;;;;;;;9.65;6.05;;;;;;;;;;4997903;28;20026;-76
2023/06/17 00:15:10;;;;;;;6.70;5.70;;;;;;;;;;4979671;28;20462;-77
2023/06/17 00:17:37;;;;;;;7.40;5.30;;;;;;;;;;4996892;28;20053;-75
2023/06/17 00:20:12;;;;;;;8.05;5.65;;;;;;;;;;4998348;28;20034;-75
2023/06/17 00:22:46;;;;;;;10.40;5.97;;;;;;;;;;4997698;28;20470;-75
2023/06/17 00:25:13;;;;;;;7.93;5.78;;;;;;;;;;4982581;28;20487;-78
2023/06/17 00:27:40;;;;;;;10.75;5.78;;;;;;;;;;4981229;28;20026;-76
2023/06/17 00:30:08;;;;;;;11.35;7.15;;;;;;;;;;4996975;28;20057;-76
2023/06/17 00:32:36;;;;;;;9.75;6.18;;;;;;;;;;4997601;28;20070;-77
2023/06/17 00:35:05;;;;;;;11.77;6.88;;;;;;;;;;4997892;28;20193;-76
2023/06/17 00:37:32;;;;;;;7.30;5.95;;;;;;;;;;4997659;28;20061;-76
2023/06/17 00:39:59;;;;;;;7.38;6.63;;;;;;;;;;4999313;28;20118;-77
2023/06/17 00:42:25;;;;;;;8.57;6.22;;;;;;;;;;4999663;28;20068;-76
2023/06/17 00:44:53;;;;;;;10.43;6.88;;;;;;;;;;4999078;28;20033;-76
2023/06/17 00:47:23;;;;;;;10.57;6.00;;;;;;;;;;4998291;28;20088;-76
2023/06/17 00:49:51;;;;;;;11.93;6.13;;;;;;;;;;4998795;28;20197;-77
2023/06/17 00:52:17;;;;;;;12.70;6.63;;;;;;;;;;4998483;28;20034;-78
2023/06/17 00:54:43;;;;;;;8.70;6.40;;;;;;;;;;4999417;28;20037;-75
2023/06/17 00:57:13;;;;;;;7.88;6.03;;;;;;;;;;5000343;28;20106;-76
2023/06/17 00:59:41;;;;;;;7.10;6.30;;;;;;;;;;4998372;28;20032;-76
2023/06/17 01:02:09;;;;;;;8.52;5.63;;;;;;;;;;4999304;28;20045;-76
2023/06/17 01:04:42;;;;;;;7.90;6.10;;;;;;;;;;4982891;28;20038;-78
2023/06/17 01:07:16;;;;;;;8.40;6.03;;;;;;;;;;4998034;28;20049;-76
2023/06/17 01:09:50;;;;;;;9.38;6.63;;;;;;;;;;4998642;28;20026;-76
2023/06/17 01:12:17;;;;;;;11.55;7.03;;;;;;;;;;4998744;28;20183;-75
2023/06/17 01:14:45;;;;;;;12.15;6.88;;;;;;;;;;5000811;28;20069;-76
2023/06/17 01:17:12;;;;;;;11.82;6.22;;;;;;;;;;5016387;28;20118;-75
2023/06/17 01:19:48;;;;;;;8.45;6.97;;;;;;;;;;5000422;28;20027;-74
2023/06/17 01:22:17;;;;;;;13.15;6.32;;;;;;;;;;5018234;28;20046;-76
2023/06/17 01:24:49;;;;;;;8.52;6.38;;;;;;;;;;5004860;28;20031;-75
2023/06/17 01:27:18;;;;;;;6.80;5.63;;;;;;;;;;5010591;28;20030;-76
2023/06/17 01:29:47;;;;;;;9.00;5.93;;;;;;;;;;5010352;28;20026;-76
2023/06/17 01:32:14;;;;;;;8.18;5.63;;;;;;;;;;5004714;28;20027;-76
2023/06/17 01:35:05;;;;;;;9.10;6.40;;;;;;;;;;5004331;28;20030;-77
2023/06/17 01:37:48;;;;;;;6.90;5.17;;;;;;;;;;5002458;28;20073;-76
2023/06/17 01:40:18;;;;;;;9.10;6.15;;;;;;;;;;5003868;28;20110;-75
2023/06/17 01:42:52;;;;;;;7.82;6.00;;;;;;;;;;4986444;28;20034;-76
2023/06/17 01:45:19;;;;;;;9.10;6.10;;;;;;;;;;5002521;28;20034;-76
2023/06/17 01:47:46;;;;;;;9.80;6.07;;;;;;;;;;5001549;28;20490;-76
2023/06/17 01:50:18;;;;;;;7.78;5.93;;;;;;;;;;5001875;28;20482;-76
2023/06/17 01:52:45;;;;;;;10.52;6.43;;;;;;;;;;5004702;28;20027;-76
2023/06/17 01:55:13;;;;;;;8.52;5.97;;;;;;;;;;5006631;28;20050;-76
2023/06/17 01:57:40;;;;;;;7.85;5.55;;;;;;;;;;5006484;28;20137;-76
2023/06/17 02:00:06;;;;;;;8.95;5.45;;;;;;;;;;5005865;28;20033;-75
2023/06/17 02:02:35;;;;;;;5.88;4.90;;;;;;;;;;5004987;28;20096;-76
2023/06/17 02:05:02;;;;;;;8.20;5.43;;;;;;;;;;5005334;28;20027;-76
2023/06/17 02:07:30;;;;;;;7.55;5.55;;;;;;;;;;5003133;28;20097;-76
2023/06/17 02:09:56;;;;;;;6.90;5.75;;;;;;;;;;5000894;28;20026;-74
2023/06/17 02:12:26;;;;;;;8.38;5.93;;;;;;;;;;5001440;28;20022;-77
2023/06/17 02:14:53;;;;;;;6.50;4.57;;;;;;;;;;5000828;28;20431;-76
2023/06/17 02:17:19;;;;;;;7.93;5.40;;;;;;;;;;4999942;28;20033;-76
2023/06/17 02:19:45;;;;;;;7.63;5.75;;;;;;;;;;5000988;28;20022;-76
2023/06/17 02:22:11;;;;;;;6.88;4.72;;;;;;;;;;5002007;28;20077;-76
2023/06/17 02:24:37;;;;;;;9.50;5.38;;;;;;;;;;5001156;28;20053;-76
2023/06/17 02:27:09;;;;;;;7.10;5.35;;;;;;;;;;5000744;28;20041;-75
2023/06/17 02:29:35;;;;;;;6.00;5.38;;;;;;;;;;4985558;28;20030;-76
2023/06/17 02:32:01;;;;;;;6.15;4.85;;;;;;;;;;5002598;28;20176;-77
2023/06/17 02:34:33;;;;;;;7.47;5.68;;;;;;;;;;5003569;28;20038;-77
2023/06/17 02:37:02;;;;;;;7.17;5.10;;;;;;;;;;5018757;28;20026;-76
2023/06/17 02:39:29;;;;;;;6.40;5.30;;;;;;;;;;5000313;28;20072;-77
2023/06/17 02:41:55;;;;;;;8.32;5.78;;;;;;;;;;4999724;28;20026;-77
2023/06/17 02:44:21;;;;;;;6.13;5.15;;;;;;;;;;4997518;28;20033;-76
2023/06/17 02:46:47;;;;;;;6.63;4.82;;;;;;;;;;4998999;28;20062;-77
2023/06/17 02:49:17;;;;;;;9.07;5.22;;;;;;;;;;5000193;28;20522;-76
2023/06/17 02:51:43;;;;;;;6.00;5.38;;;;;;;;;;4999185;28;20061;-76
2023/06/17 02:54:11;;;;;;;6.80;5.30;;;;;;;;;;4997614;28;20478;-78
2023/06/17 02:56:37;;;;;;;6.60;4.60;;;;;;;;;;4998719;28;20033;-76
2023/06/17 02:59:03;;;;;;;7.88;4.53;;;;;;;;;;4997928;28;20030;-75
2023/06/17 03:01:31;;;;;;;5.75;4.60;;;;;;;;;;4999036;28;20034;-76
2023/06/17 03:04:01;;;;;;;7.88;5.15;;;;;;;;;;5000624;28;20449;-77
2023/06/17 03:06:31;;;;;;;7.13;4.80;;;;;;;;;;4999736;28;20026;-76
2023/06/17 03:09:03;;;;;;;5.95;4.30;;;;;;;;;;5000203;28;20038;-77
2023/06/17 03:11:32;;;;;;;8.75;5.18;;;;;;;;;;4999617;28;20026;-76
2023/06/17 03:14:01;;;;;;;6.80;5.18;;;;;;;;;;4999818;28;20041;-78
2023/06/17 03:16:33;;;;;;;7.20;5.55;;;;;;;;;;4997907;28;20024;-76
2023/06/17 03:19:14;;;;;;;7.97;5.05;;;;;;;;;;4998974;28;20060;-75
2023/06/17 03:21:45;;;;;;;6.47;4.65;;;;;;;;;;4995631;28;20049;-77
2023/06/17 03:24:11;;;;;;;7.40;4.60;;;;;;;;;;4983416;28;20034;-76
2023/06/17 03:26:38;;;;;;;8.07;4.47;;;;;;;;;;4999450;28;20089;-77
2023/06/17 03:29:04;;;;;;;8.20;4.68;;;;;;;;;;4983790;28;20034;-77
2023/06/17 03:31:30;;;;;;;4.35;3.95;;;;;;;;;;5010034;28;20034;-79
2023/06/17 03:33:56;;;;;;;7.60;4.93;;;;;;;;;;5019285;28;20064;-76
2023/06/17 03:36:28;;;;;;;5.50;3.90;;;;;;;;;;5019920;28;20455;-76
2023/06/17 03:39:00;;;;;;;5.80;4.28;;;;;;;;;;5019914;28;20112;-77
2023/06/17 03:41:26;;;;;;;5.18;4.13;;;;;;;;;;5004839;28;20057;-76
2023/06/17 03:43:53;;;;;;;7.13;4.65;;;;;;;;;;5022218;28;20037;-77
2023/06/17 03:46:20;;;;;;;4.90;3.88;;;;;;;;;;5003243;28;20057;-77
2023/06/17 03:48:46;;;;;;;6.82;4.88;;;;;;;;;;5020466;28;20053;-75
2023/06/17 03:51:13;;;;;;;7.28;4.75;;;;;;;;;;5018452;28;20100;-77
2023/06/17 03:53:50;;;;;;;6.03;4.28;;;;;;;;;;5019025;28;20025;-76
2023/06/17 03:56:16;;;;;;;4.90;4.10;;;;;;;;;;5018001;28;20113;-78
2023/06/17 03:58:46;;;;;;;5.13;4.07;;;;;;;;;;5019241;28;20033;-77
2023/06/17 04:01:15;;;;;;;5.03;4.00;;;;;;;;;;5017499;28;20030;-76
2023/06/17 04:03:45;;;;;;;7.60;4.45;;;;;;;;;;5018418;28;20033;-77
2023/06/17 04:06:11;;;;;;;5.75;4.50;;;;;;;;;;5034865;28;20025;-75
2023/06/17 04:08:37;;;;;;;4.40;4.00;;;;;;;;;;5018433;28;20425;-76
2023/06/17 04:11:04;;;;;;;6.93;4.38;;;;;;;;;;5018478;28;20030;-76
2023/06/17 04:13:34;;;;;;;7.18;4.78;;;;;;;;;;5019188;28;20038;-77
2023/06/17 04:16:02;;;;;;;6.00;4.57;;;;;;;;;;5018294;28;20030;-76
2023/06/17 04:18:28;;;;;;;8.85;4.63;;;;;;;;;;5020277;28;20060;-77
2023/06/17 04:20:56;;;;;;;5.40;4.05;;;;;;;;;;5021729;28;20046;-75
2023/06/17 04:23:25;;;;;;;5.82;3.95;;;;;;;;;;5018728;28;20065;-75
2023/06/17 04:25:56;;;;;;;4.97;4.25;;;;;;;;;;5019572;28;20030;-78
2023/06/17 04:28:31;;;;;;;4.30;3.90;;;;;;;;;;5002398;28;20034;-76
2023/06/17 04:31:01;;;;;;;5.97;4.57;;;;;;;;;;5018424;28;20048;-76
2023/06/17 04:33:30;;;;;;;5.75;4.40;;;;;;;;;;5034632;28;20108;-76
2023/06/17 04:36:08;;;;;;;5.30;4.00;;;;;;;;;;5019840;28;20029;-77
2023/06/17 04:38:37;;;;;;;6.78;3.78;;;;;;;;;;5020246;28;20026;-76
2023/06/17 04:41:05;;;;;;;6.05;4.50;;;;;;;;;;5020386;28;20034;-76
2023/06/17 04:43:36;;;;;;;5.80;4.15;;;;;;;;;;5019118;28;20022;-76
2023/06/17 04:46:03;;;;;;;7.35;4.65;;;;;;;;;;5019795;28;20030;-76
2023/06/17 04:48:30;;;;;;;4.97;3.28;;;;;;;;;;5019358;28;20055;-76
2023/06/17 04:50:57;;;;;;;4.38;3.75;;;;;;;;;;5013624;28;20105;-76
2023/06/17 04:53:29;;;;;;;4.88;3.85;;;;;;;;;;5004871;28;20034;-78
2023/06/17 04:55:56;;;;;;;10.07;4.45;;;;;;;;;;5016149;28;20025;-79
2023/06/17 04:58:22;;;;;;;7.03;4.25;;;;;;;;;;4998681;28;20030;-76
2023/06/17 05:00:49;;;;;;;4.47;3.63;;;;;;;;;;4998309;28;20098;-77
2023/06/17 05:03:15;;;;;;;4.88;3.53;;;;;;;;;;5014615;28;20102;-79
2023/06/17 05:05:44;;;;;;;5.32;3.80;;;;;;;;;;4999754;28;20058;-76
2023/06/17 05:08:10;;;;;;;7.43;3.83;;;;;;;;;;4997721;28;20026;-77
2023/06/17 05:10:37;;;;;;;5.97;4.15;;;;;;;;;;4997715;28;20041;-78
2023/06/17 05:13:03;;;;;;;7.35;4.00;;;;;;;;;;4982993;28;20026;-77
2023/06/17 05:15:32;;;;;;;5.88;4.10;;;;;;;;;;5000017;28;20026;-77
2023/06/17 05:17:59;;;;;;;5.70;4.18;;;;;;;;;;5015275;28;20086;-77
2023/06/17 05:20:25;;;;;;;9.55;4.15;;;;;;;;;;4998411;28;20033;-78
2023/06/17 05:22:51;;;;;;;9.15;3.72;;;;;;;;;;5000128;28;20066;-76
2023/06/17 05:25:19;;;;;;;8.00;4.05;;;;;;;;;;4998331;28;20022;-77
2023/06/17 05:27:45;;;;;;;5.63;3.90;;;;;;;;;;5014806;28;20037;-76
2023/06/17 05:30:12;;;;;;;5.25;3.97;;;;;;;;;;4998711;28;20053;-75
2023/06/17 05:32:42;;;;;;;8.73;4.03;;;;;;;;;;4998931;28;20049;-76
2023/06/17 05:35:11;;;;;;;5.63;3.58;;;;;;;;;;4998970;28;20030;-75
2023/06/17 05:37:39;;;;;;;12.70;4.80;;;;;;;;;;5001351;28;20034;-78
2023/06/17 05:40:08;;;;;;;5.97;3.63;;;;;;;;;;5000567;28;20026;-77
2023/06/17 05:42:41;;;;;;;5.47;3.67;;;;;;;;;;5002938;28;20090;-77
2023/06/17 05:45:08;;;;;;;6.30;3.90;;;;;;;;;;5008010;28;20022;-77
2023/06/17 05:47:37;;;;;;;4.35;3.60;;;;;;;;;;5011237;28;20544;-77
2023/06/17 05:50:03;;;;;;;5.15;3.83;;;;;;;;;;5008221;28;20034;-76
2023/06/17 05:52:30;;;;;;;5.85;3.95;;;;;;;;;;5000831;28;20034;-77
2023/06/17 05:54:57;;;;;;;8.05;4.05;;;;;;;;;;5000545;28;20022;-77
2023/06/17 05:57:27;;;;;;;5.07;3.58;;;;;;;;;;4999882;28;20034;-77
2023/06/17 06:00:01;;;;;;;4.90;4.13;;;;;;;;;;4997459;28;20030;-78
2023/06/17 06:02:31;;;;;;;6.95;4.10;;;;;;;;;;4997585;28;20065;-78
2023/06/17 06:04:57;;;;;;;4.97;3.50;;;;;;;;;;4997291;28;20241;-76
2023/06/17 06:07:23;;;;;;;4.45;3.33;;;;;;;;;;4997137;28;20147;-76
2023/06/17 06:09:50;;;;;;;5.88;3.42;;;;;;;;;;4997987;28;20041;-77
2023/06/17 06:12:18;;;;;;;4.90;3.55;;;;;;;;;;5000112;28;20080;-77
2023/06/17 06:14:44;;;;;;;6.07;3.58;;;;;;;;;;4999835;28;20026;-77
2023/06/17 06:17:14;;;;;;;3.47;3.17;;;;;;;;;;4998030;28;20026;-76
2023/06/17 06:19:43;;;;;;;4.97;3.70;;;;;;;;;;5000107;28;20049;-78
2023/06/17 06:22:14;;;;;;;4.32;3.70;;;;;;;;;;5003025;28;20077;-78
2023/06/17 06:24:40;;;;;;;5.18;3.75;;;;;;;;;;5005181;28;20045;-76
2023/06/17 06:27:06;;;;;;;7.93;4.03;;;;;;;;;;5003319;28;20384;-76
2023/06/17 06:29:32;;;;;;;5.35;3.75;;;;;;;;;;5019672;28;20071;-77
2023/06/17 06:32:01;;;;;;;8.20;3.88;;;;;;;;;;5005145;28;20034;-78
2023/06/17 06:34:28;;;;;;;4.38;3.40;;;;;;;;;;5004224;28;20026;-78
2023/06/17 06:37:06;;;;;;;5.90;3.55;;;;;;;;;;5002884;28;20022;-77
2023/06/17 06:39:34;;;;;;;4.47;3.50;;;;;;;;;;5000829;28;20029;-77
2023/06/17 06:41:59;;;;;;;5.57;3.58;;;;;;;;;;4996000;28;20026;-77
2023/06/17 06:44:28;;;;;;;5.10;3.70;;;;;;;;;;4996347;28;20116;-78
2023/06/17 06:46:57;;;;;;;5.32;4.13;;;;;;;;;;5001418;28;20030;-77
2023/06/17 06:49:23;;;;;;;5.18;4.47;;;;;;;;;;5000036;28;20046;-77
2023/06/17 06:51:51;;;;;;;4.07;3.42;;;;;;;;;;5000858;28;20030;-78
2023/06/17 06:54:17;;;;;;;10.43;4.00;;;;;;;;;;5000979;28;20072;-77
2023/06/17 06:56:43;;;;;;;4.55;3.80;;;;;;;;;;4999990;28;20018;-78
2023/06/17 06:59:16;;;;;;;10.10;3.80;;;;;;;;;;5000189;28;20049;-78
2023/06/17 07:01:42;;;;;;;6.40;4.30;;;;;;;;;;4999700;28;20120;-78
2023/06/17 07:04:08;;;;;;;7.78;4.68;;;;;;;;;;4999622;28;20038;-78
2023/06/17 07:06:34;;;;;;;6.65;4.47;;;;;;;;;;4999061;28;20450;-77
2023/06/17 07:09:03;;;;;;;6.18;4.32;;;;;;;;;;5000145;28;20034;-81
2023/06/17 07:11:39;;;;;;;7.90;5.07;;;;;;;;;;5000799;28;20030;-78
2023/06/17 07:14:19;;;;;;;4.93;4.10;;;;;;;;;;5001421;28;20026;-76
2023/06/17 07:16:51;;;;;;;8.15;4.53;;;;;;;;;;5002755;28;20022;-76
2023/06/17 07:19:18;;;;;;;5.05;4.55;;;;;;;;;;5001862;28;20682;-77
2023/06/17 07:21:43;;;;;;;6.78;4.72;;;;;;;;;;4999441;28;20078;-78
2023/06/17 07:24:09;;;;;;;9.88;5.97;;;;;;;;;;4999979;28;20034;-78
2023/06/17 07:26:38;;;;;;;8.63;6.30;;;;;;;;;;5002790;28;20164;-76
2023/06/17 07:29:12;;;;;;;10.82;6.78;;;;;;;;;;5002098;28;20113;-79
2023/06/17 07:31:38;;;;;;;7.63;5.65;;;;;;;;;;5002080;28;20038;-77
2023/06/17 07:34:08;;;;;;;8.70;6.32;;;;;;;;;;5001828;28;20022;-79
2023/06/17 07:36:34;;;;;;;8.20;6.40;;;;;;;;;;4999236;28;20034;-80
2023/06/17 07:39:06;;;;;;;10.00;6.95;;;;;;;;;;5000252;28;20042;-79
2023/06/17 07:41:37;;;;;;;;;;;;;;;;;;5000586;28;20114;-78
2023/06/17 07:44:09;;;;;;;10.40;5.72;;;;;;;;;;5001643;28;20000;-78
2023/06/17 07:46:35;;;;;;;6.82;5.38;;;;;;;;;;5001999;28;20036;-80
2023/06/17 07:49:07;;;;;;;6.45;5.85;;;;;;;;;;5001066;28;20026;-79
2023/06/17 07:51:34;;;;;;;9.38;5.68;;;;;;;;;;5000191;28;20034;-78
2023/06/17 07:54:06;;;;;;;8.55;5.82;;;;;;;;;;4999158;28;20022;-81
2023/06/17 07:56:41;;;;;;;7.97;5.20;;;;;;;;;;4999722;28;20076;-79
2023/06/17 07:59:13;;;;;;;6.88;5.25;;;;;;;;;;5001646;28;20483;-80
2023/06/17 08:01:51;;;;;;;8.13;5.47;;;;;;;;;;5001367;28;20038;-79
2023/06/17 08:04:21;;;;;;;7.63;5.32;;;;;;;;;;4994655;28;20054;-78
2023/06/17 08:06:53;;;;;;;6.60;5.70;;;;;;;;;;5001840;28;20042;-78
2023/06/17 08:09:22;;;;;;;14.18;5.45;;;;;;;;;;4999882;28;20038;-79
2023/06/17 08:11:49;;;;;;;15.68;5.57;;;;;;;;;;5001715;28;20125;-77
2023/06/17 08:14:29;;;;;;;9.35;6.55;;;;;;;;;;5001127;28;20036;-78
2023/06/17 08:17:09;;;;;;;7.78;5.97;;;;;;;;;;4999602;28;20114;-78
2023/06/17 08:19:36;;;;;;;11.18;7.60;;;;;;;;;;4999785;28;20026;-80
2023/06/17 08:22:08;;;;;;;13.15;7.38;;;;;;;;;;4997940;28;20499;-77
2023/06/17 08:24:39;;;;;;;9.63;6.35;;;;;;;;;;4998775;28;20030;-77
2023/06/17 08:27:15;;;;;;;7.65;6.43;;;;;;;;;;5000060;28;20026;-78
2023/06/17 08:29:44;;;;;;;7.93;6.63;;;;;;;;;;4998494;28;20034;-77
2023/06/17 08:32:34;;;;;;;;;;;;;;;;;;;;;
2023/06/17 08:35:08;;;;;;;8.20;6.13;;;;;;;;;;5000697;28;20113;-78
2023/06/17 08:37:34;;;;;;;9.73;5.85;;;;;;;;;;5000636;28;20034;-78
2023/06/17 08:40:05;;;;;;;11.98;7.22;;;;;;;;;;5002558;28;20084;-77
2023/06/17 08:42:50;;;;;;;8.18;6.13;;;;;;;;;;4982487;28;20122;-77
2023/06/17 08:45:16;;;;;;;8.23;6.03;;;;;;;;;;4985909;28;20030;-77
2023/06/17 08:48:05;;;;;;;7.43;6.18;;;;;;;;;;4997108;28;20134;-76
2023/06/17 08:50:49;;;;;;;9.00;6.30;;;;;;;;;;4993214;28;20113;-77
2023/06/17 08:53:40;;;;;;;8.95;5.80;;;;;;;;;;5001961;28;20026;-79
2023/06/17 08:56:32;;;;;;;10.57;6.68;;;;;;;;;;4999752;28;20026;-78
2023/06/17 08:59:39;;;;;;;;;;;;;;;;;;;;;
2023/06/17 09:02:03;;;;;;;10.68;6.20;;;;;;;;;;4998607;28;20004;-78
2023/06/17 09:04:59;;;;;;;8.45;6.13;;;;;;;;;;5003147;28;20081;-79
2023/06/17 09:07:28;;;;;;;8.45;6.10;;;;;;;;;;5002042;28;20045;-78
2023/06/17 09:09:55;;;;;;;8.40;5.97;;;;;;;;;;5001581;28;20038;-77
2023/06/17 09:12:24;;;;;;;8.23;5.85;;;;;;;;;;5001766;28;20030;-77
2023/06/17 09:14:54;;;;;;;7.90;5.97;;;;;;;;;;4979961;28;20180;-76
2023/06/17 09:17:30;;;;;;;7.32;5.65;;;;;;;;;;4997200;28;20018;-77
2023/06/17 09:20:08;;;;;;;11.70;8.13;;;;;;;;;;4995106;28;20022;-79
2023/06/17 09:22:35;;;;;;;7.03;6.03;;;;;;;;;;4994498;28;20077;-77
2023/06/17 09:25:01;;;;;;;7.60;6.70;;;;;;;;;;4994920;28;20037;-77
2023/06/17 09:27:27;;;;;;;11.25;5.45;;;;;;;;;;4991907;28;20121;-77
2023/06/17 09:30:13;;;;;;;9.15;6.70;;;;;;;;;;4974232;28;20037;-78
2023/06/17 09:32:43;;;;;;;10.32;6.40;;;;;;;;;;4993055;28;20022;-78
2023/06/17 09:35:15;;;;;;;11.18;6.47;;;;;;;;;;4989897;28;20440;-79
2023/06/17 09:37:53;;;;;;;8.63;6.22;;;;;;;;;;4991462;28;20044;-79
2023/06/17 09:40:22;;;;;;;8.68;6.53;;;;;;;;;;4996339;28;20030;-77
2023/06/17 09:42:50;;;;;;;8.93;5.72;;;;;;;;;;5013524;28;20054;-79
2023/06/17 09:45:25;;;;;;;10.15;6.15;;;;;;;;;;4996797;28;20356;-77
2023/06/17 09:47:58;;;;;;;9.05;6.25;;;;;;;;;;4998715;28;20120;-79
2023/06/17 09:50:42;;;;;;;10.32;6.50;;;;;;;;;;4996631;28;20223;-77
2023/06/17 09:53:08;;;;;;;14.30;6.22;;;;;;;;;;4997400;28;20037;-78
2023/06/17 09:55:38;;;;;;;11.00;5.95;;;;;;;;;;5019268;28;20030;-78
2023/06/17 09:58:11;;;;;;;7.65;6.45;;;;;;;;;;5004471;28;20105;-78
2023/06/17 10:00:47;;;;;;;11.95;5.88;;;;;;;;;;4991449;28;20045;-77
2023/06/17 10:03:14;;;;;;;7.32;6.45;;;;;;;;;;5009860;28;20046;-77
2023/06/17 10:05:45;;;;;;;7.38;5.72;;;;;;;;;;5007131;28;20054;-78
2023/06/17 10:08:11;;;;;;;9.52;6.05;;;;;;;;;;5006554;28;20031;-78
2023/06/17 10:10:38;;;;;;;6.65;5.50;;;;;;;;;;5004343;28;20034;-77
2023/06/17 10:13:07;;;;;;;10.05;6.28;;;;;;;;;;4984080;28;20034;-78
2023/06/17 10:15:34;;;;;;;8.73;6.22;;;;;;;;;;4999737;28;20027;-77
2023/06/17 10:18:07;;;;;;;8.38;6.30;;;;;;;;;;4999674;28;20379;-80
2023/06/17 10:20:38;;;;;;;12.15;5.15;;;;;;;;;;4999251;28;20101;-79
2023/06/17 10:23:04;;;;;;;12.53;4.73;;;;;;;;;;5000184;28;20058;-77
2023/06/17 10:25:30;;;;;;;22.65;5.65;;;;;;;;;;4998928;28;20180;-77
2023/06/17 10:27:56;;;;;;;11.50;4.72;;;;;;;;;;4997918;28;20050;-79
2023/06/17 10:30:27;;;;;;;15.07;5.97;;;;;;;;;;4963900;28;20049;-78
2023/06/17 10:33:03;;;;;;;15.15;7.18;;;;;;;;;;4996654;28;20022;-76
2023/06/17 10:35:44;;;;;;;11.70;6.85;;;;;;;;;;4994598;28;20030;-76
2023/06/17 10:38:28;;;;;;;14.95;6.90;;;;;;;;;;4994629;28;20030;-77
2023/06/17 10:40:58;;;;;;;13.20;7.00;;;;;;;;;;4994623;28;20518;-78
2023/06/17 10:43:25;;;;;;;15.23;7.10;;;;;;;;;;5010928;28;20496;-77
2023/06/17 10:45:56;;;;;;;7.32;5.20;;;;;;;;;;4994300;28;20102;-78
2023/06/17 10:48:32;;;;;;;7.63;5.70;;;;;;;;;;4998230;28;20028;-77
2023/06/17 10:51:11;;;;;;;7.90;5.43;;;;;;;;;;4997373;28;20042;-79
2023/06/17 10:53:37;;;;;;;9.73;5.22;;;;;;;;;;4996992;28;20038;-78
2023/06/17 10:56:06;;;;;;;9.10;5.10;;;;;;;;;;4997874;28;20018;-76
2023/06/17 10:58:37;;;;;;;9.55;5.22;;;;;;;;;;4998144;28;20034;-77
2023/06/17 11:01:10;;;;;;;9.83;6.17;;;;;;;;;;4996947;28;20173;-76
2023/06/17 11:03:37;;;;;;;8.85;5.43;;;;;;;;;;4996009;28;20260;-77
2023/06/17 11:06:04;;;;;;;9.77;6.55;;;;;;;;;;4993017;28;20475;-77
2023/06/17 11:08:33;;;;;;;11.75;5.03;;;;;;;;;;4996434;28;20367;-76
2023/06/17 11:11:13;;;;;;;7.00;5.05;;;;;;;;;;4996000;28;20129;-77
2023/06/17 11:13:47;;;;;;;8.82;5.25;;;;;;;;;;4995030;28;20038;-78
2023/06/17 11:16:13;;;;;;;9.40;5.35;;;;;;;;;;4995434;28;20028;-77
2023/06/17 11:18:42;;;;;;;11.80;7.20;;;;;;;;;;4996185;28;20034;-77
2023/06/17 11:21:10;;;;;;;6.18;4.50;;;;;;;;;;4996087;28;20050;-76
2023/06/17 11:23:39;;;;;;;7.55;5.63;;;;;;;;;;4997014;28;20038;-77
2023/06/17 11:26:10;;;;;;;8.45;5.70;;;;;;;;;;4997594;28;20390;-78
2023/06/17 11:28:45;;;;;;;9.00;6.10;;;;;;;;;;4996416;28;20034;-77
2023/06/17 11:31:17;;;;;;;7.80;6.32;;;;;;;;;;4997581;28;20054;-77
2023/06/17 11:33:44;;;;;;;5.93;4.95;;;;;;;;;;4980460;28;20125;-77
2023/06/17 11:36:13;;;;;;;10.68;5.53;;;;;;;;;;4996637;28;20085;-77
2023/06/17 11:38:40;;;;;;;9.55;5.65;;;;;;;;;;4993459;28;20033;-76
2023/06/17 11:41:07;;;;;;;7.95;5.57;;;;;;;;;;4994205;28;20033;-76
2023/06/17 11:43:34;;;;;;;8.52;6.18;;;;;;;;;;4993189;28;20030;-76
2023/06/17 11:45:59;;;;;;;9.07;5.43;;;;;;;;;;4994615;28;20030;-75
2023/06/17 11:48:29;;;;;;;7.57;5.00;;;;;;;;;;4995973;28;20061;-77
2023/06/17 11:51:00;;;;;;;5.82;5.00;;;;;;;;;;4996717;28;20037;-77
2023/06/17 11:53:31;;;;;;;7.80;5.25;;;;;;;;;;4994484;28;20026;-77
2023/06/17 11:56:02;;;;;;;8.23;6.05;;;;;;;;;;4997604;28;20101;-77
2023/06/17 11:58:37;;;;;;;10.27;5.03;;;;;;;;;;4998168;28;20033;-77
2023/06/17 12:01:06;;;;;;;11.75;5.68;;;;;;;;;;4997412;28;20018;-77
2023/06/17 12:03:36;;;;;;;8.38;5.47;;;;;;;;;;4984181;28;20112;-77
2023/06/17 12:06:03;;;;;;;5.37;4.70;;;;;;;;;;4998259;28;20026;-76
2023/06/17 12:08:37;;;;;;;11.80;5.90;;;;;;;;;;4999584;28;20033;-77
2023/06/17 12:11:20;;;;;;;15.85;8.32;;;;;;;;;;4983801;28;20038;-78
2023/06/17 12:13:47;;;;;;;13.65;7.35;;;;;;;;;;5001042;28;20053;-77
2023/06/17 12:16:36;;;;;;;13.88;7.40;;;;;;;;;;4998056;28;20041;-77
2023/06/17 12:19:09;;;;;;;7.82;4.90;;;;;;;;;;4999085;28;20470;-77
2023/06/17 12:21:37;;;;;;;6.05;5.28;;;;;;;;;;4979794;28;20062;-77
2023/06/17 12:24:03;;;;;;;8.73;5.90;;;;;;;;;;4995506;28;20120;-76
2023/06/17 12:26:31;;;;;;;7.00;5.32;;;;;;;;;;4995788;28;20030;-77
2023/06/17 12:28:58;;;;;;;9.48;6.47;;;;;;;;;;4998931;28;20050;-77
2023/06/17 12:31:26;;;;;;;10.02;6.50;;;;;;;;;;4980746;28;20026;-76
2023/06/17 12:33:52;;;;;;;9.48;6.95;;;;;;;;;;4998568;28;20125;-76
2023/06/17 12:36:20;;;;;;;12.45;7.18;;;;;;;;;;5000391;28;20062;-77
2023/06/17 12:38:49;;;;;;;7.78;6.65;;;;;;;;;;4996060;28;20092;-78
2023/06/17 12:41:17;;;;;;;11.20;8.50;;;;;;;;;;4994004;28;20093;-79
2023/06/17 12:43:44;;;;;;;7.65;6.30;;;;;;;;;;4996349;28;20022;-76
2023/06/17 12:46:14;;;;;;;8.48;5.90;;;;;;;;;;4996052;28;20031;-77
2023/06/17 12:48:43;;;;;;;9.85;5.95;;;;;;;;;;4996306;28;20026;-77
2023/06/17 12:51:10;;;;;;;7.90;5.00;;;;;;;;;;4979174;28;20121;-78
2023/06/17 12:53:44;;;;;;;7.18;5.70;;;;;;;;;;4996141;28;20046;-78
2023/06/17 12:56:11;;;;;;;8.50;4.75;;;;;;;;;;4993727;28;20010;-77
2023/06/17 12:58:38;;;;;;;5.68;4.35;;;;;;;;;;4994733;28;20108;-78
2023/06/17 13:01:05;;;;;;;12.82;6.40;;;;;;;;;;4994391;28;20027;-77
2023/06/17 13:03:31;;;;;;;9.82;5.88;;;;;;;;;;4996781;28;20037;-78
2023/06/17 13:05:57;;;;;;;5.97;5.05;;;;;;;;;;4997973;28;20118;-78
2023/06/17 13:08:23;;;;;;;7.93;6.45;;;;;;;;;;4997033;28;20027;-79
2023/06/17 13:10:51;;;;;;;17.17;7.40;;;;;;;;;;5010111;28;20113;-79
2023/06/17 13:13:19;;;;;;;8.40;6.20;;;;;;;;;;4997711;28;20533;-78
2023/06/17 13:15:47;;;;;;;11.20;6.88;;;;;;;;;;5011973;28;20022;-79
2023/06/17 13:18:13;;;;;;;9.45;6.30;;;;;;;;;;4995072;28;20497;-78
2023/06/17 13:20:41;;;;;;;7.15;5.60;;;;;;;;;;4994619;28;20529;-79
2023/06/17 13:23:09;;;;;;;8.18;6.25;;;;;;;;;;5011859;28;20077;-78
2023/06/17 13:25:35;;;;;;;7.88;5.97;;;;;;;;;;4997330;28;20038;-79
2023/06/17 13:28:02;;;;;;;10.07;6.78;;;;;;;;;;4993505;28;20037;-77
2023/06/17 13:30:28;;;;;;;10.52;7.07;;;;;;;;;;4997915;28;20064;-77
2023/06/17 13:32:54;;;;;;;9.77;6.65;;;;;;;;;;5000156;28;20034;-77
2023/06/17 13:35:21;;;;;;;16.77;11.27;;;;;;;;;;5001249;28;20526;-78
2023/06/17 13:37:48;;;;;;;9.57;7.75;;;;;;;;;;5001554;28;20101;-78
2023/06/17 13:40:15;;;;;;;7.05;6.30;;;;;;;;;;5000742;28;20030;-77
2023/06/17 13:42:42;;;;;;;10.75;6.88;;;;;;;;;;5000755;28;20054;-76
2023/06/17 13:45:11;;;;;;;10.20;5.78;;;;;;;;;;5000348;28;20026;-77
2023/06/17 13:47:40;;;;;;;7.55;6.35;;;;;;;;;;5001193;28;20123;-78
2023/06/17 13:50:06;;;;;;;10.60;6.18;;;;;;;;;;5002071;28;20090;-76
2023/06/17 13:52:32;;;;;;;7.93;7.03;;;;;;;;;;5002680;28;20076;-77
2023/06/17 13:54:58;;;;;;;10.27;7.68;;;;;;;;;;4998369;28;20588;-78
2023/06/17 13:57:24;;;;;;;11.60;7.30;;;;;;;;;;5001181;28;20181;-78
2023/06/17 13:59:54;;;;;;;14.27;8.68;;;;;;;;;;4982450;28;20037;-77
2023/06/17 14:02:33;;;;;;;19.08;9.15;;;;;;;;;;4999450;28;20037;-77
2023/06/17 14:05:00;;;;;;;21.35;10.70;;;;;;;;;;5000225;28;20514;-77
2023/06/17 14:07:29;;;;;;;18.17;10.35;;;;;;;;;;5000192;28;20031;-78
2023/06/17 14:09:55;;;;;;;21.83;10.93;;;;;;;;;;5000521;28;20026;-79
2023/06/17 14:12:21;;;;;;;21.45;11.23;;;;;;;;;;5001701;28;20073;-77
2023/06/17 14:14:48;;;;;;;22.42;11.95;;;;;;;;;;5000723;28;20034;-77
2023/06/17 14:17:17;;;;;;;33.60;26.33;;;;;;;;;;5002094;28;20037;-78
2023/06/17 14:19:44;;;;;;;14.20;9.45;;;;;;;;;;5003206;28;20033;-78
2023/06/17 14:22:09;;;;;;;19.85;11.27;;;;;;;;;;5003000;28;20051;-76
2023/06/17 14:24:37;;;;;;;16.55;10.73;;;;;;;;;;5007814;28;20108;-77
2023/06/17 14:27:39;;;;;;;21.67;11.00;;;;;;;;;;5010517;28;20041;-75
2023/06/17 14:30:15;;;;;;;18.05;10.77;;;;;;;;;;5000272;28;20042;-79
2023/06/17 14:32:48;;;;;;;17.48;10.40;;;;;;;;;;4984515;28;20030;-78
2023/06/17 14:35:18;;;;;;;14.27;9.18;;;;;;;;;;5002335;28;20545;-78
2023/06/17 14:37:48;;;;;;;10.68;8.18;;;;;;;;;;5000262;28;20065;-78
2023/06/17 14:40:16;;;;;;;11.25;8.07;;;;;;;;;;5000150;28;20647;-76
2023/06/17 14:42:45;;;;;;;12.73;7.85;;;;;;;;;;4997524;28;20066;-78
2023/06/17 14:45:14;;;;;;;15.35;8.20;;;;;;;;;;4999758;28;20050;-78
2023/06/17 14:47:41;;;;;;;18.02;9.00;;;;;;;;;;5000096;28;20018;-77
2023/06/17 14:50:11;;;;;;;11.93;7.95;;;;;;;;;;5000563;28;20049;-77
2023/06/17 14:52:38;;;;;;;13.63;7.75;;;;;;;;;;4999943;28;20033;-78
2023/06/17 14:55:08;;;;;;;13.25;8.25;;;;;;;;;;4998953;28;20033;-79